createdAt,value
2023-04-01T00:00:15.219Z,98669.90
2023-04-01T00:05:41.103Z,98666.54
2023-04-01T00:10:46.938Z,98659.55
2023-04-01T00:15:52.962Z,98655.10
2023-04-01T00:20:58.939Z,98654.46
2023-04-01T00:26:06.473Z,98655.15
2023-04-01T00:31:13.112Z,98649.20
2023-04-01T00:36:22.494Z,98645.19
2023-04-01T00:41:29.054Z,98642.27
2023-04-01T00:46:36.843Z,98637.34
2023-04-01T00:51:43.989Z,98636.59
2023-04-01T00:56:56.815Z,98631.55
2023-04-01T01:02:03.878Z,98626.48
2023-04-01T01:07:21.561Z,98629.24
2023-04-01T01:12:32.652Z,98629.73
2023-04-01T01:17:42.022Z,98631.60
2023-04-01T01:23:08.327Z,98630.81
2023-04-01T01:28:32.729Z,98625.13
2023-04-01T01:33:48.713Z,98620.02
2023-04-01T01:38:55.660Z,98623.89
2023-04-01T01:44:03.900Z,98633.66
2023-04-01T01:49:11.500Z,98636.91
2023-04-01T01:54:18.281Z,98636.15
2023-04-01T01:59:28.252Z,98634.77
2023-04-01T02:04:35.263Z,98633.41
2023-04-01T02:09:41.100Z,98627.66
2023-04-01T02:14:53.290Z,98622.91
2023-04-01T02:20:01.035Z,98621.60
2023-04-01T02:25:10.620Z,98617.70
2023-04-01T02:30:17.521Z,98610.09
2023-04-01T02:35:23.446Z,98601.73
2023-04-01T02:40:29.014Z,98598.91
2023-04-01T02:45:34.773Z,98593.03
2023-04-01T02:50:40.707Z,98594.31
2023-04-01T02:55:46.319Z,98591.02
2023-04-01T03:00:51.925Z,98600.79
2023-04-01T03:05:59.623Z,98601.54
2023-04-01T03:11:05.177Z,98604.33
2023-04-01T03:16:11.702Z,98607.20
2023-04-01T03:21:19.680Z,98608.09
2023-04-01T03:26:27.736Z,98615.84
2023-04-01T03:31:33.666Z,98617.41
2023-04-01T03:36:39.542Z,98618.64
2023-04-01T03:41:45.360Z,98620.69
2023-04-01T03:46:51.120Z,98620.42
2023-04-01T03:51:57.090Z,98626.48
2023-04-01T03:57:02.590Z,98633.86
2023-04-01T04:02:08.507Z,98646.23
2023-04-01T04:07:14.762Z,98651.63
2023-04-01T04:12:41.481Z,98659.29
2023-04-01T04:17:48.518Z,98661.39
2023-04-01T04:22:54.418Z,98663.42
2023-04-01T04:27:59.988Z,98665.95
2023-04-01T04:33:06.297Z,98666.55
2023-04-01T04:38:12.140Z,98666.59
2023-04-01T04:43:19.125Z,98674.27
2023-04-01T04:48:24.909Z,98679.36
2023-04-01T04:53:30.370Z,98679.68
2023-04-01T04:58:36.265Z,98681.20
2023-04-01T05:03:42.580Z,98676.09
2023-04-01T05:08:48.321Z,98680.86
2023-04-01T05:13:54.056Z,98682.02
2023-04-01T05:18:59.762Z,98682.34
2023-04-01T05:24:08.220Z,98684.65
2023-04-01T05:29:14.511Z,98686.20
2023-04-01T05:34:21.278Z,98690.69
2023-04-01T05:39:27.453Z,98690.42
2023-04-01T05:44:33.110Z,98691.91
2023-04-01T05:49:41.197Z,98691.13
2023-04-01T05:54:47.416Z,98696.81
2023-04-01T05:59:52.929Z,98698.66
2023-04-01T06:05:12.933Z,98699.80
2023-04-01T06:10:21.012Z,98703.61
2023-04-01T06:15:37.660Z,98702.39
2023-04-01T06:20:50.828Z,98709.10
2023-04-01T06:26:15.683Z,98712.58
2023-04-01T06:31:35.773Z,98715.07
2023-04-01T06:36:58.775Z,98712.55
2023-04-01T06:42:35.423Z,98708.61
2023-04-01T06:47:57.789Z,98713.50
2023-04-01T06:53:33.539Z,98714.60
2023-04-01T06:59:01.158Z,98713.01
2023-04-01T07:04:13.559Z,98711.79
2023-04-01T07:09:23.958Z,98714.03
2023-04-01T07:14:57.197Z,98717.20
2023-04-01T07:20:06.629Z,98715.31
2023-04-01T07:25:17.792Z,98711.33
2023-04-01T07:30:34.015Z,98712.21
2023-04-01T07:35:47.133Z,98710.74
2023-04-01T07:41:04.900Z,98718.17
2023-04-01T07:46:22.794Z,98716.48
2023-04-01T07:51:36.821Z,98716.92
2023-04-01T07:56:48.310Z,98711.73
2023-04-01T08:02:08.687Z,98714.05
2023-04-01T08:07:19.798Z,98721.39
2023-04-01T08:12:56.892Z,98726.17
2023-04-01T08:18:42.605Z,98727.17
2023-04-01T08:23:53.337Z,98727.44
2023-04-01T08:29:04.107Z,98727.30
2023-04-01T08:34:19.524Z,98730.85
2023-04-01T08:39:33.898Z,98735.02
2023-04-01T08:45:08.325Z,98735.95
2023-04-01T08:50:35.192Z,98737.45
2023-04-01T08:56:07.522Z,98742.80
2023-04-01T09:01:26.016Z,98745.95
2023-04-01T09:07:00.429Z,98744.11
2023-04-01T09:12:32.974Z,98741.87
2023-04-01T09:17:55.726Z,98745.07
2023-04-01T09:23:16.981Z,98746.14
2023-04-01T09:28:35.918Z,98753.58
2023-04-01T09:34:09.874Z,98759.77
2023-04-01T09:39:38.675Z,98763.55
2023-04-01T09:44:49.763Z,98765.08
2023-04-01T09:50:18.209Z,98769.83
2023-04-01T09:55:57.245Z,98772.58
2023-04-01T10:01:29.304Z,98771.80
2023-04-01T10:07:05.441Z,98773.54
2023-04-01T10:12:47.131Z,98771.41
2023-04-01T10:18:21.667Z,98779.80
2023-04-01T10:24:01.635Z,98780.86
2023-04-01T10:29:41.269Z,98780.55
2023-04-01T10:35:08.316Z,98783.73
2023-04-01T10:41:00.389Z,98783.17
2023-04-01T10:46:59.286Z,98784.03
2023-04-01T10:52:54.975Z,98782.38
2023-04-01T10:58:45.831Z,98778.02
2023-04-01T11:04:52.604Z,98776.14
2023-04-01T11:10:45.955Z,98772.88
2023-04-01T11:16:21.473Z,98778.44
2023-04-01T11:22:00.837Z,98780.54
2023-04-01T11:27:32.048Z,98784.35
2023-04-01T11:32:50.163Z,98785.82
2023-04-01T11:38:05.834Z,98796.02
2023-04-01T11:43:38.644Z,98799.88
2023-04-01T11:49:29.372Z,98800.34
2023-04-01T11:55:17.286Z,98801.64
2023-04-01T12:01:05.967Z,98805.71
2023-04-01T12:06:21.017Z,98802.25
2023-04-01T12:11:39.389Z,98797.14
2023-04-01T12:17:01.318Z,98794.23
2023-04-01T12:22:35.790Z,98800.02
2023-04-01T12:27:54.800Z,98802.58
2023-04-01T12:33:17.171Z,98804.77
2023-04-01T12:38:32.731Z,98808.95
2023-04-01T12:44:07.585Z,98812.30
2023-04-01T12:49:49.955Z,98817.05
2023-04-01T12:55:32.802Z,98818.52
2023-04-01T13:01:17.286Z,98822.75
2023-04-01T13:06:42.907Z,98823.88
2023-04-01T13:12:02.134Z,98827.35
2023-04-01T13:17:19.173Z,98835.80
2023-04-01T13:22:48.367Z,98840.51
2023-04-01T13:28:05.462Z,98849.77
2023-04-01T13:33:18.496Z,98852.66
2023-04-01T13:39:06.337Z,98853.91
2023-04-01T13:44:18.985Z,98860.92
2023-04-01T13:49:49.481Z,98871.72
2023-04-01T13:55:07.862Z,98874.71
2023-04-01T14:00:42.558Z,98882.27
2023-04-01T14:06:11.186Z,98889.40
2023-04-01T14:11:28.459Z,98893.00
2023-04-01T14:17:03.298Z,98893.07
2023-04-01T14:22:24.564Z,98902.42
2023-04-01T14:27:48.445Z,98906.55
2023-04-01T14:33:01.373Z,98908.78
2023-04-01T14:38:26.210Z,98912.15
2023-04-01T14:44:01.020Z,98917.66
2023-04-01T14:49:16.328Z,98926.59
2023-04-01T14:54:31.253Z,98936.39
2023-04-01T14:59:48.796Z,98945.13
2023-04-01T15:04:59.793Z,98948.42
2023-04-01T15:10:10.834Z,98956.08
2023-04-01T15:15:32.530Z,98965.85
2023-04-01T15:21:01.253Z,98975.23
2023-04-01T15:26:22.961Z,98980.05
2023-04-01T15:31:33.041Z,98991.33
2023-04-01T15:36:45.739Z,98997.62
2023-04-01T15:42:06.944Z,99007.73
2023-04-01T15:47:35.329Z,99012.86
2023-04-01T15:52:52.163Z,99014.39
2023-04-01T15:58:18.046Z,99022.08
2023-04-01T16:03:38.005Z,99028.10
2023-04-01T16:09:17.699Z,99040.91
2023-04-01T16:14:42.527Z,99054.08
2023-04-01T16:19:55.592Z,99065.04
2023-04-01T16:25:20.927Z,99070.72
2023-04-01T16:30:35.933Z,99079.64
2023-04-01T16:35:48.785Z,99089.81
2023-04-01T16:41:08.369Z,99104.02
2023-04-01T16:46:36.484Z,99112.63
2023-04-01T16:51:48.650Z,99119.48
2023-04-01T16:57:02.908Z,99131.89
2023-04-01T17:02:14.873Z,99144.75
2023-04-01T17:07:37.950Z,99150.61
2023-04-01T17:12:54.691Z,99155.14
2023-04-01T17:18:10.840Z,99164.83
2023-04-01T17:23:24.387Z,99173.57
2023-04-01T17:28:41.693Z,99174.80
2023-04-01T17:34:05.129Z,99181.48
2023-04-01T17:39:37.325Z,99185.58
2023-04-01T17:44:54.149Z,99198.70
2023-04-01T17:50:11.381Z,99209.56
2023-04-01T17:55:51.842Z,99216.88
2023-04-01T18:01:10.364Z,99231.67
2023-04-01T18:06:21.078Z,99238.56
2023-04-01T18:11:40.464Z,99248.19
2023-04-01T18:17:01.136Z,99255.80
2023-04-01T18:22:19.974Z,99261.02
2023-04-01T18:27:30.673Z,99267.38
2023-04-01T18:32:46.428Z,99276.53
2023-04-01T18:37:58.631Z,99288.35
2023-04-01T18:43:14.045Z,99298.30
2023-04-01T18:48:40.728Z,99308.21
2023-04-01T18:53:53.786Z,99307.98
2023-04-01T18:59:07.871Z,99311.13
2023-04-01T19:04:24.736Z,99322.59
2023-04-01T19:09:43.822Z,99325.18
2023-04-01T19:15:00.716Z,99334.11
2023-04-01T19:20:17.457Z,99338.91
2023-04-01T19:25:32.489Z,99346.00
2023-04-01T19:30:54.006Z,99354.67
2023-04-01T19:36:10.424Z,99355.45
2023-04-01T19:41:31.168Z,99362.69
2023-04-01T19:46:44.080Z,99373.45
2023-04-01T19:51:54.895Z,99378.62
2023-04-01T19:57:14.098Z,99385.23
2023-04-01T20:02:39.380Z,99392.73
2023-04-01T20:07:53.007Z,99399.58
2023-04-01T20:13:06.784Z,99403.07
2023-04-01T20:18:20.912Z,99407.13
2023-04-01T20:23:44.936Z,99410.29
2023-04-01T20:29:08.754Z,99415.77
2023-04-01T20:34:37.029Z,99420.92
2023-04-01T20:40:19.213Z,99425.67
2023-04-01T20:45:35.042Z,99431.71
2023-04-01T20:50:50.148Z,99440.86
2023-04-01T20:56:08.909Z,99443.70
2023-04-01T21:01:27.450Z,99450.20
2023-04-01T21:06:49.822Z,99451.42
2023-04-01T21:12:03.436Z,99464.37
2023-04-01T21:17:18.835Z,99474.31
2023-04-01T21:22:51.656Z,99474.52
2023-04-01T21:28:18.159Z,99484.77
2023-04-01T21:33:40.542Z,99490.41
2023-04-01T21:38:59.990Z,99495.77
2023-04-01T21:44:27.428Z,99505.11
2023-04-01T21:49:51.493Z,99510.86
2023-04-01T21:55:33.341Z,99513.29
2023-04-01T22:00:43.990Z,99518.73
2023-04-01T22:05:56.410Z,99526.42
2023-04-01T22:11:09.728Z,99533.08
2023-04-01T22:16:22.624Z,99537.88
2023-04-01T22:21:39.339Z,99541.38
2023-04-01T22:26:51.949Z,99550.16
2023-04-01T22:32:03.779Z,99553.71
2023-04-01T22:37:19.024Z,99555.45
2023-04-01T22:42:39.249Z,99562.40
2023-04-01T22:47:58.408Z,99566.77
2023-04-01T22:53:19.167Z,99570.29
2023-04-01T22:58:32.395Z,99568.30
2023-04-01T23:03:42.210Z,99576.27
2023-04-01T23:09:07.496Z,99579.02
2023-04-01T23:14:38.165Z,99582.40
2023-04-01T23:19:53.201Z,99588.88
2023-04-01T23:25:09.847Z,99592.66
2023-04-01T23:30:55.304Z,99600.70
2023-04-01T23:36:06.409Z,99607.11
2023-04-01T23:41:19.013Z,99608.85
2023-04-01T23:46:26.222Z,99613.53
2023-04-01T23:51:40.547Z,99625.67
2023-04-01T23:56:49.933Z,99632.16
